Data for 04/05/2009

Time Sea-Level Adjusted Pressure Absolute Pressure Temperature Relative Humidity Dew Point   
(mb) (inHg) (mb) (inHg) (C) (F) (%) (C) (F)
00:05 1027 30.33 856 25.28 -3.2 26.2 71 -7.7 18.2
00:10 1027 30.33 856 25.28 -3.2 26.3 71 -7.7 18.2
00:15 1027 30.33 856 25.28 -3.2 26.3 72 -7.5 18.5
00:20 1027 30.33 856 25.28 -3.2 26.2 72 -7.6 18.3
00:25 1027 30.33 856 25.28 -3.2 26.3 72 -7.6 18.3
00:30 1027 30.33 856 25.28 -3.1 26.4 72 -7.6 18.4
00:35 1027 30.33 856 25.28 -3.1 26.4 71 -7.6 18.3
00:40 1027 30.33 856 25.28 -3.1 26.4 71 -7.6 18.4
00:45 1027 30.33 856 25.28 -3.1 26.4 72 -7.5 18.4
00:50 1027 30.33 856 25.28 -3.2 26.3 72 -7.5 18.5
00:55 1027 30.33 856 25.28 -3.1 26.4 72 -7.5 18.5
01:00 1027 30.33 856 25.28 -3.1 26.4 72 -7.5 18.5
01:05 1027 30.33 856 25.28 -3.2 26.3 72 -7.5 18.5
01:10 1027 30.33 856 25.28 -3.3 26.1 73 -7.5 18.6
01:15 1027 30.33 856 25.28 -3.5 25.7 73 -7.6 18.3
01:20 1027 30.33 856 25.28 -3.5 25.7 73 -7.6 18.2
01:25 1027 30.33 856 25.28 -3.4 25.8 73 -7.6 18.3
01:30 1027 30.33 856 25.28 -3.4 25.8 72 -7.7 18.1
01:35 1027 30.33 856 25.28 -3.5 25.8 73 -7.7 18.2
01:40 1027 30.33 856 25.28 -3.5 25.7 73 -7.7 18.1
01:45 1027 30.33 856 25.28 -3.5 25.7 73 -7.6 18.2
01:50 1027 30.33 856 25.28 -3.5 25.7 72 -7.7 18.1
01:55 1027 30.33 856 25.28 -3.4 25.8 73 -7.6 18.2
02:00 1027 30.33 856 25.28 -3.6 25.5 73 -7.8 17.9
02:05 1027 30.33 856 25.28 -3.9 25 74 -7.9 17.7
02:10 1027 30.33 856 25.28 -4.3 24.2 74 -8.3 17
02:15 1027 30.33 856 25.28 -4.6 23.6 75 -8.5 16.7
02:20 1027 30.33 856 25.28 -5 23 76 -8.6 16.5
02:25 1027 30.33 856 25.28 -5.3 22.5 78 -8.6 16.6
02:30 1027 30.33 856 25.28 -5.5 22.1 79 -8.6 16.5
02:35 1027 30.33 856 25.28 -6 21.2 79 -9 15.7
02:40 1027 30.33 856 25.28 -6.3 20.7 80 -9.2 15.4
02:45 1027 30.33 856 25.28 -6.3 20.6 79 -9.4 15.1
02:50 1027 30.33 856 25.28 -6.3 20.7 79 -9.4 15
02:55 1027 30.33 856 25.28 -6.3 20.7 78 -9.5 14.9
03:00 1027 30.33 856 25.28 -6.4 20.4 79 -9.5 14.8
03:05 1027 30.33 856 25.28 -6.6 20.2 78 -9.8 14.3
03:10 1027 30.33 856 25.28 -6.8 19.8 78 -10 14.1
03:15 1027 30.33 856 25.28 -6.8 19.7 77 -10.2 13.7
03:20 1027 30.33 856 25.28 -6.9 19.5 76 -10.4 13.3
03:25 1027 30.33 856 25.28 -6.9 19.6 76 -10.4 13.4
03:30 1027 30.33 856 25.28 -6.9 19.7 77 -10.3 13.5
03:35 1027 30.33 856 25.28 -6.9 19.6 76 -10.5 13.1
03:40 1027 30.33 856 25.28 -7 19.4 76 -10.5 13.1
03:45 1027 30.33 856 25.28 -7.1 19.2 77 -10.5 13
03:50 1027 30.33 856 25.28 -7.1 19.2 76 -10.6 12.9
03:55 1027 30.33 856 25.28 -6.9 19.6 76 -10.4 13.2
04:00 1027 30.33 856 25.28 -6.7 19.9 76 -10.3 13.5
04:05 1027 30.33 856 25.28 -6.9 19.6 76 -10.3 13.4
04:10 1027 30.33 856 25.28 -7 19.4 76 -10.5 13.2
04:15 1027 30.33 856 25.28 -7.1 19.2 78 -10.4 13.3
04:20 1027 30.33 856 25.28 -7.1 19.3 77 -10.4 13.3
04:25 1027 30.33 856 25.28 -7 19.4 78 -10.3 13.5
04:30 1027 30.33 856 25.28 -7 19.5 77 -10.3 13.5
04:35 1027 30.33 856 25.28 -7 19.4 77 -10.3 13.4
04:40 1027 30.33 856 25.28 -7 19.4 77 -10.5 13.2
04:45 1027 30.33 856 25.28 -7.1 19.2 76 -10.6 13
04:50 1027 30.33 856 25.28 -7.1 19.3 76 -10.6 12.8
04:55 1027 30.33 856 25.28 -7 19.3 76 -10.5 13
05:00 1027 30.33 857 25.31 -7.2 19 76 -10.8 12.6
05:05 1027 30.33 857 25.31 -7.2 19 75 -10.8 12.5
05:10 1027 30.33 857 25.31 -7.2 19.1 76 -10.7 12.8
05:15 1027 30.33 857 25.31 -7.4 18.7 77 -10.7 12.7
05:20 1027 30.33 857 25.31 -7.2 19.1 76 -10.7 12.8
05:25 1027 30.33 857 25.31 -7.3 18.8 77 -10.8 12.6
05:30 1027 30.33 857 25.31 -7.4 18.7 77 -10.8 12.5
05:35 1027 30.33 857 25.31 -7.5 18.6 77 -10.9 12.4
05:40 1028 30.36 857 25.31 -7.2 19 75 -10.8 12.5
05:45 1028 30.36 857 25.31 -7.4 18.8 76 -10.8 12.5
05:50 1028 30.36 857 25.31 -7.6 18.4 76 -11.1 12.1
05:55 1028 30.36 857 25.31 -7.8 17.9 77 -11.1 12
06:00 1028 30.36 857 25.31 -8.1 17.4 78 -11.3 11.7
06:05 1028 30.36 857 25.31 -8.3 17.1 79 -11.3 11.7
06:10 1028 30.36 857 25.31 -8.2 17.2 78 -11.4 11.5
06:15 1028 30.36 857 25.31 -8.4 16.9 79 -11.4 11.4
06:20 1028 30.36 857 25.31 -8.4 16.9 79 -11.5 11.4
06:25 1028 30.36 857 25.31 -8.5 16.8 79 -11.5 11.3
06:30 1028 30.36 857 25.31 -8.5 16.7 79 -11.5 11.4
06:35 1028 30.36 857 25.31 -8.4 16.9 78 -11.5 11.3
06:40 1028 30.36 857 25.31 -8.4 16.9 79 -11.5 11.3
06:45 1028 30.36 857 25.31 -8.4 16.9 79 -11.5 11.4
06:50 1028 30.36 857 25.31 -8.3 17 78 -11.5 11.3
06:55 1028 30.36 857 25.31 -8.4 16.9 79 -11.4 11.5
07:00 1028 30.36 857 25.31 -8.3 17.1 79 -11.3 11.6
07:05 1028 30.36 857 25.31 -8.2 17.2 78 -11.4 11.5
07:10 1028 30.36 857 25.31 -8.3 17.1 78 -11.5 11.2
07:15 1028 30.36 857 25.31 -8.1 17.5 77 -11.4 11.5
07:20 1028 30.36 857 25.31 -7.9 17.8 76 -11.4 11.6
07:25 1028 30.36 857 25.31 -7.7 18.2 76 -11.2 11.9
07:30 1028 30.36 858 25.34 -7.4 18.6 75 -11.2 11.8
07:35 1028 30.36 858 25.34 -7.4 18.7 74 -11.2 11.8
07:40 1028 30.36 858 25.34 -7.1 19.1 73 -11.2 11.9
07:45 1028 30.36 858 25.34 -7.1 19.2 72 -11.3 11.7
07:50 1028 30.36 858 25.34 -7.1 19.3 72 -11.4 11.6
07:55 1028 30.36 858 25.34 -6.9 19.6 71 -11.3 11.7
08:00 1028 30.36 858 25.34 -6.5 20.4 70 -11.1 12
08:05 1029 30.39 858 25.34 -6.1 21 68 -11.1 12.1
08:10 1029 30.39 858 25.34 -6.3 20.7 69 -11.1 12.1
08:15 1029 30.39 858 25.34 -6 21.1 68 -11 12.2
08:20 1029 30.39 858 25.34 -5.7 21.7 67 -10.9 12.4
08:25 1029 30.39 858 25.34 -5.5 22.1 66 -10.9 12.4
08:30 1029 30.39 858 25.34 -5.4 22.3 66 -10.7 12.7
08:35 1029 30.39 858 25.34 -5 23 65 -10.7 12.7
08:40 1029 30.39 858 25.34 -4.9 23.2 65 -10.6 12.9
08:45 1029 30.39 858 25.34 -4.9 23.1 64 -10.8 12.6
08:50 1029 30.39 858 25.34 -4.5 23.9 63 -10.4 13.2
08:55 1029 30.39 858 25.34 -4 24.8 60 -10.6 13
09:00 1029 30.39 858 25.34 -3.3 26.1 58 -10.5 13.1
09:05 1029 30.39 858 25.34 -3.1 26.4 59 -10.1 13.8
09:10 1029 30.39 858 25.34 -2.4 27.7 56 -10 13.9
09:15 1029 30.39 858 25.34 -2.5 27.4 58 -9.8 14.3
09:20 1029 30.39 858 25.34 -3.3 26.1 59 -10.1 13.8
09:25 1029 30.39 858 25.34 -2.6 27.2 57 -10 13.9
09:30 1029 30.39 858 25.34 -2 28.3 55 -10 14
09:35 1029 30.39 858 25.34 -1.3 29.7 53 -9.6 14.7
09:40 1029 30.39 858 25.34 -1.4 29.6 56 -9 15.8
09:45 1029 30.39 858 25.34 -2 28.4 58 -9.2 15.4
09:50 1029 30.39 858 25.34 -1.9 28.7 57 -9.3 15.2
09:55 1029 30.39 858 25.34 -1.4 29.5 55 -9.2 15.4
10:00 1029 30.39 858 25.34 -1.8 28.7 57 -9.3 15.3
10:05 1029 30.39 858 25.34 -1.5 29.3 56 -9.1 15.6
10:10 1029 30.39 858 25.34 -1.1 30.1 55 -9 15.8
10:15 1029 30.39 858 25.34 -0.7 30.7 54 -8.9 15.9
10:20 1029 30.39 858 25.34 -1.1 30 56 -8.8 16.2
10:25 1029 30.39 858 25.34 -0.6 30.9 52 -9.3 15.3
10:30 1029 30.39 858 25.34 -0.1 31.8 50 -9.4 15.1
10:35 1029 30.39 858 25.34 -0.7 30.8 52 -9.3 15.2
10:40 1029 30.39 858 25.34 -1.2 29.9 55 -9 15.7
10:45 1029 30.39 858 25.34 -1.4 29.4 55 -9.4 15.1
10:50 1029 30.39 858 25.34 -1.3 29.7 55 -9.2 15.4
10:55 1029 30.39 858 25.34 -1.2 29.9 56 -9 15.9
11:00 1029 30.39 858 25.34 -1 30.2 55 -8.9 16
11:05 1029 30.39 859 25.37 -0.9 30.3 55 -8.9 16
11:10 1029 30.39 859 25.37 -1.2 29.9 56 -8.8 16.2
11:15 1029 30.39 859 25.37 -0.7 30.7 55 -8.8 16.2
11:20 1029 30.39 859 25.37 -1.1 30 57 -8.6 16.5
11:25 1029 30.39 858 25.34 -0.8 30.5 55 -8.8 16.1
11:30 1029 30.39 858 25.34 -0.7 30.7 56 -8.5 16.7
11:35 1029 30.39 858 25.34 -0.6 31 57 -8.1 17.3
11:40 1029 30.39 858 25.34 -0.8 30.5 57 -8.3 17.1
11:45 1029 30.39 858 25.34 -0.7 30.7 56 -8.4 16.9
11:50 1029 30.39 858 25.34 -0.1 31.8 56 -7.9 17.8
11:55 1029 30.39 858 25.34 0.1 32.1 57 -7.5 18.5
12:00 1029 30.39 858 25.34 0.1 32.2 57 -7.5 18.5
12:05 1029 30.39 858 25.34 0.1 32.1 57 -7.6 18.4
12:10 1029 30.39 858 25.34 0.3 32.5 57 -7.3 18.9
12:15 1029 30.39 858 25.34 0.4 32.8 56 -7.4 18.7
12:20 1029 30.39 858 25.34 0.5 33 57 -7 19.3
12:25 1029 30.39 858 25.34 0.6 33 56 -7.3 18.9
12:30 1029 30.39 858 25.34 0.3 32.5 58 -7.1 19.2
12:35 1029 30.39 858 25.34 0.4 32.8 57 -7.1 19.3
12:40 1029 30.39 858 25.34 0.7 33.2 56 -7 19.3
12:45 1029 30.39 858 25.34 0.5 32.8 58 -6.9 19.5
12:50 1029 30.39 858 25.34 1 33.8 55 -7 19.4
12:55 1029 30.39 858 25.34 1.1 34.1 56 -6.7 20
13:00 1029 30.39 858 25.34 1.1 34 56 -6.7 19.9
13:05 1029 30.39 858 25.34 0.9 33.7 56 -6.9 19.6
13:10 1029 30.39 858 25.34 0.9 33.7 57 -6.7 19.9
13:15 1029 30.39 858 25.34 1.1 33.9 55 -6.9 19.5
13:20 1029 30.39 858 25.34 1.1 34 56 -6.7 20
13:25 1029 30.39 858 25.34 1.6 34.8 55 -6.6 20.1
13:30 1029 30.39 858 25.34 1.7 35.1 53 -6.8 19.8
13:35 1029 30.39 858 25.34 1.8 35.2 53 -6.9 19.6
13:40 1029 30.39 858 25.34 1.6 34.9 54 -6.7 20
13:45 1029 30.39 858 25.34 1.8 35.3 54 -6.6 20.2
13:50 1029 30.39 858 25.34 1.9 35.3 54 -6.5 20.3
13:55 1029 30.39 858 25.34 1.9 35.3 54 -6.5 20.3
14:00 1029 30.39 858 25.34 2.1 35.7 54 -6.4 20.5
14:05 1029 30.39 858 25.34 2.1 35.8 53 -6.5 20.3
14:10 1029 30.39 858 25.34 2.3 36.1 52 -6.7 20
14:15 1029 30.39 858 25.34 2.3 36.1 52 -6.6 20.1
14:20 1029 30.39 858 25.34 2.3 36.1 51 -6.9 19.6
14:25 1029 30.39 858 25.34 2.5 36.4 48 -7.3 18.8
14:30 1029 30.39 858 25.34 2.4 36.3 50 -7.1 19.3
14:35 1029 30.39 858 25.34 2.4 36.4 49 -7.1 19.2
14:40 1029 30.39 858 25.34 2.7 36.8 48 -7.2 19.1
14:45 1029 30.39 858 25.34 2.6 36.7 50 -6.9 19.7
14:50 1029 30.39 858 25.34 2.8 37 49 -7 19.4
14:55 1029 30.39 858 25.34 2.4 36.4 50 -7.1 19.3
15:00 1029 30.39 858 25.34 2.4 36.3 50 -6.9 19.6
15:05 1029 30.39 858 25.34 2.5 36.6 50 -6.8 19.7
15:10 1029 30.39 858 25.34 3 37.3 49 -6.6 20.1
15:15 1029 30.39 858 25.34 2.8 37 51 -6.3 20.7
15:20 1029 30.39 858 25.34 3.2 37.7 50 -6.2 20.8
15:25 1029 30.39 858 25.34 3.4 38 48 -6.5 20.2
15:30 1029 30.39 858 25.34 3.5 38.2 48 -6.5 20.3
15:35 1029 30.39 858 25.34 3.5 38.3 47 -6.8 19.8
15:40 1029 30.39 858 25.34 3.8 38.8 46 -6.9 19.6
15:45 1029 30.39 858 25.34 3.8 38.9 46 -6.7 19.9
15:50 1029 30.39 858 25.34 3.8 38.9 44 -7.3 18.9
15:55 1028 30.36 858 25.34 3.7 38.7 45 -7.1 19.1
16:00 1028 30.36 858 25.34 3.7 38.7 45 -7 19.3
16:05 1028 30.36 858 25.34 3.6 38.5 45 -7.3 18.9
16:10 1028 30.36 858 25.34 3.7 38.6 45 -7.3 18.8
16:15 1029 30.39 858 25.34 3.6 38.5 44 -7.5 18.6
16:20 1029 30.39 858 25.34 3.7 38.6 43 -7.7 18.1
16:25 1029 30.39 858 25.34 3.5 38.4 42 -8.2 17.2
16:30 1029 30.39 858 25.34 3.5 38.4 40 -8.7 16.3
16:35 1029 30.39 858 25.34 3.6 38.4 38 -9.3 15.3
16:40 1029 30.39 858 25.34 3.6 38.5 39 -9 15.8
16:45 1029 30.39 858 25.34 3.6 38.5 34 -10.7 12.7
16:50 1029 30.39 858 25.34 3.5 38.3 34 -10.9 12.4
16:55 1029 30.39 858 25.34 3.7 38.6 32 -11.6 11.1
17:00 1029 30.39 858 25.34 3.6 38.4 31 -11.9 10.5
17:05 1028 30.36 858 25.34 4.1 39.3 30 -12.1 10.3
17:10 1028 30.36 858 25.34 4.2 39.5 32 -11.3 11.7
17:15 1028 30.36 858 25.34 4.1 39.4 30 -11.8 10.8
17:20 1028 30.36 858 25.34 4.4 39.9 31 -11.3 11.7
17:25 1029 30.39 858 25.34 4.4 40 32 -11 12.3
17:30 1029 30.39 858 25.34 4.5 40.1 31 -11.2 11.8
17:35 1028 30.36 858 25.34 4.7 40.5 30 -11.4 11.5
17:40 1028 30.36 858 25.34 4.7 40.4 29 -11.9 10.5
17:45 1028 30.36 858 25.34 4.4 39.8 29 -12.2 10
17:50 1028 30.36 858 25.34 4.4 39.9 30 -11.8 10.7
17:55 1028 30.36 858 25.34 4.8 40.7 27 -12.8 9
18:00 1028 30.36 857 25.31 5.3 41.6 24 -13.5 7.6
18:05 1028 30.36 857 25.31 5.5 41.9 25 -13.3 8.1
18:10 1028 30.36 857 25.31 5.8 42.4 21 -15.1 4.9
18:15 1028 30.36 857 25.31 5.6 42.2 21 -15.4 4.3
18:20 1028 30.36 857 25.31 5.4 41.6 19 -16.3 2.7
18:25 1028 30.36 857 25.31 5 40.9 23 -14.5 6
18:30 1028 30.36 857 25.31 4.8 40.6 23 -14.5 5.8
18:35 1028 30.36 857 25.31 4.7 40.4 21 -15.9 3.3
18:40 1028 30.36 857 25.31 4.5 40.1 24 -14.5 5.8
18:45 1028 30.36 857 25.31 4.5 40.1 23 -15.1 4.8
18:50 1028 30.36 857 25.31 4.3 39.8 25 -14.1 6.7
18:55 1028 30.36 857 25.31 4.4 39.8 25 -13.8 7.1
19:00 1028 30.36 857 25.31 4.4 40 23 -14.8 5.3
19:05 1028 30.36 857 25.31 4.3 39.8 23 -15 5
19:10 1028 30.36 857 25.31 4.2 39.6 24 -14.7 5.5
19:15 1028 30.36 857 25.31 4.2 39.6 20 -17.1 1.2
19:20 1028 30.36 857 25.31 4.2 39.5 22 -15.9 3.4
19:25 1028 30.36 857 25.31 4 39.2 22 -15.7 3.7
19:30 1028 30.36 857 25.31 3.8 38.9 21 -16.4 2.5
19:35 1028 30.36 857 25.31 3.7 38.6 22 -16.1 3
19:40 1028 30.36 857 25.31 3.6 38.4 24 -15.5 4.1
19:45 1028 30.36 857 25.31 3.4 38 26 -14.5 5.8
19:50 1028 30.36 857 25.31 3 37.5 27 -14.4 6.1
19:55 1028 30.36 857 25.31 2.8 37.1 26 -14.7 5.5
20:00 1028 30.36 857 25.31 2.6 36.7 27 -14.5 5.9
20:05 1028 30.36 857 25.31 2.5 36.4 28 -14.3 6.2
20:10 1028 30.36 857 25.31 2.3 36.1 28 -14.3 6.3
20:15 1028 30.36 857 25.31 2.1 35.9 29 -14.1 6.6
20:20 1028 30.36 857 25.31 1.9 35.5 31 -13.6 7.6
20:25 1028 30.36 857 25.31 1.7 35.1 33 -13 8.5
20:30 1028 30.36 857 25.31 1.4 34.5 38 -11.4 11.5
20:35 1028 30.36 857 25.31 0.6 33.1 43 -10.7 12.8
20:40 1028 30.36 857 25.31 0.2 32.3 44 -10.8 12.5
20:45 1028 30.36 857 25.31 0.3 32.5 50 -9.1 15.7
20:50 1028 30.36 857 25.31 0.1 32.1 54 -8.2 17.2
20:55 1028 30.36 857 25.31 -0.2 31.7 55 -8.1 17.5
21:00 1028 30.36 857 25.31 -0.3 31.5 56 -8.1 17.5
21:05 1028 30.36 857 25.31 -0.3 31.4 56 -8.1 17.5
21:10 1028 30.36 857 25.31 -0.3 31.5 56 -8 17.7
21:15 1028 30.36 857 25.31 -0.3 31.5 56 -8.1 17.3
21:20 1028 30.36 857 25.31 -0.7 30.8 58 -8 17.5
21:25 1028 30.36 857 25.31 -0.9 30.4 57 -8.3 17
21:30 1028 30.36 857 25.31 -0.7 30.7 58 -8 17.5
21:35 1028 30.36 858 25.34 -0.8 30.6 58 -8 17.6
21:40 1028 30.36 858 25.34 -1 30.2 59 -7.9 17.7
21:45 1028 30.36 858 25.34 -1.1 30.1 58 -8.2 17.2
21:50 1028 30.36 858 25.34 -0.8 30.6 56 -8.4 16.9
21:55 1029 30.39 858 25.34 -0.6 31 57 -8.1 17.4
22:00 1029 30.39 858 25.34 -0.6 31 58 -7.8 17.9
22:05 1029 30.39 858 25.34 -0.8 30.6 59 -7.8 17.9
22:10 1029 30.39 858 25.34 -1 30.2 59 -8.1 17.5
22:15 1029 30.39 858 25.34 -0.9 30.3 58 -8.2 17.2
22:20 1029 30.39 858 25.34 -0.9 30.4 59 -8 17.6
22:25 1029 30.39 858 25.34 -1.1 30.1 60 -7.8 17.9
22:30 1029 30.39 858 25.34 -1.4 29.5 61 -7.9 17.8
22:35 1029 30.39 858 25.34 -1.6 29.1 60 -8.4 16.9
22:40 1029 30.39 858 25.34 -1.3 29.6 59 -8.4 16.9
22:45 1029 30.39 858 25.34 -1.2 29.8 58 -8.4 16.8
22:50 1029 30.39 858 25.34 -1.5 29.4 59 -8.5 16.6
22:55 1029 30.39 858 25.34 -1.5 29.3 59 -8.6 16.6
23:00 1029 30.39 858 25.34 -1.6 29.1 60 -8.4 16.9
23:05 1028 30.36 858 25.34 -1.8 28.8 60 -8.4 16.8
23:10 1028 30.36 858 25.34 -1.8 28.7 60 -8.6 16.5
23:15 1028 30.36 858 25.34 -1.9 28.6 62 -8.3 17.1
23:20 1028 30.36 858 25.34 -2 28.3 62 -8.4 17
23:25 1028 30.36 858 25.34 -2.1 28.2 62 -8.4 16.8
23:30 1028 30.36 858 25.34 -2.1 28.3 61 -8.6 16.5
23:35 1028 30.36 858 25.34 -2 28.4 62 -8.3 17.1
23:40 1028 30.36 858 25.34 -2 28.4 61 -8.5 16.6
23:45 1028 30.36 858 25.34 -2 28.3 62 -8.4 16.9
23:50 1028 30.36 857 25.31 -2.1 28.2 61 -8.6 16.6
23:55 1028 30.36 857 25.31 -2 28.4 61 -8.5 16.7
24:00 1028 30.36 857 25.31 -1.9 28.5 60 -8.7 16.3